Time;durP1;ratioP1;P1;durP2;ratioP2;P2;SDS_P1;SDS_P2;PMS_P1;PMS_P2;Temp;Humidity;BMP_temperature;BMP_pressure;BME280_temperature;BME280_humidity;BME280_pressure;Samples;Min_cycle;Max_cycle;Signal;HPM_P1;HPM_P2
2023/11/02 00:01:09;;;;;;;7.10;2.25;;;;;;;;;;4950961;28;20073;-64
2023/11/02 00:03:38;;;;;;;3.58;1.02;;;;;;;;;;4932032;28;20083;-64
2023/11/02 00:06:33;;;;;;;5.65;1.02;;;;;;;;;;4912537;28;20139;-64
2023/11/02 00:09:36;;;;;;;4.55;0.93;;;;;;;;;;4915377;28;20055;-63
2023/11/02 00:12:05;;;;;;;3.08;0.88;;;;;;;;;;4928089;28;20061;-64
2023/11/02 00:14:36;;;;;;;2.15;0.80;;;;;;;;;;4922012;29;20058;-64
2023/11/02 00:17:15;;;;;;;7.75;2.70;;;;;;;;;;4926083;28;20043;-64
2023/11/02 00:19:45;;;;;;;10.30;3.70;;;;;;;;;;4953257;28;20045;-64
2023/11/02 00:22:13;;;;;;;4.57;1.15;;;;;;;;;;4998429;28;20045;-64
2023/11/02 00:24:43;;;;;;;6.40;1.10;;;;;;;;;;4978683;28;20049;-63
2023/11/02 00:27:11;;;;;;;3.45;0.80;;;;;;;;;;4999723;28;20053;-63
2023/11/02 00:29:38;;;;;;;1.95;0.55;;;;;;;;;;5032252;28;20527;-63
2023/11/02 00:32:05;;;;;;;2.67;0.77;;;;;;;;;;5017387;28;20053;-64
2023/11/02 00:34:34;;;;;;;4.70;0.73;;;;;;;;;;4991266;28;20057;-64
2023/11/02 00:37:01;;;;;;;;;;;;;;;;;;5003962;28;20049;-64
2023/11/02 00:39:29;;;;;;;2.20;0.77;;;;;;;;;;5018775;28;20378;-64
2023/11/02 00:41:56;;;;;;;2.13;0.73;;;;;;;;;;4993053;28;20148;-63
2023/11/02 00:44:24;;;;;;;3.60;0.95;;;;;;;;;;4980093;28;20137;-63
2023/11/02 00:46:50;;;;;;;1.97;0.90;;;;;;;;;;5007390;28;20077;-64
2023/11/02 00:49:21;;;;;;;4.05;0.90;;;;;;;;;;4982974;28;20114;-64
2023/11/02 00:51:55;;;;;;;5.57;0.80;;;;;;;;;;4986224;28;20045;-63
2023/11/02 00:54:55;;;;;;;2.58;0.82;;;;;;;;;;4995721;28;20056;-64
2023/11/02 00:57:24;;;;;;;1.92;0.82;;;;;;;;;;5017239;28;20064;-63
2023/11/02 00:59:51;;;;;;;5.25;0.90;;;;;;;;;;4996930;28;20089;-64
2023/11/02 01:02:18;;;;;;;3.97;1.00;;;;;;;;;;4995988;28;20469;-64
2023/11/02 01:04:55;;;;;;;2.85;0.80;;;;;;;;;;4958218;28;20058;-63
2023/11/02 01:07:23;;;;;;;3.70;0.88;;;;;;;;;;4993960;28;20065;-64
2023/11/02 01:09:59;;;;;;;3.30;0.93;;;;;;;;;;4983206;28;20085;-64
2023/11/02 01:12:31;;;;;;;4.30;1.65;;;;;;;;;;4995815;28;20081;-63
2023/11/02 01:14:59;;;;;;;4.10;1.67;;;;;;;;;;4984902;28;20067;-63
2023/11/02 01:17:31;;;;;;;1.40;0.80;;;;;;;;;;4996465;28;20073;-61
2023/11/02 01:20:06;;;;;;;2.15;0.70;;;;;;;;;;4989128;28;20291;-64
2023/11/02 01:22:54;;;;;;;2.05;0.60;;;;;;;;;;4996290;28;20061;-62
2023/11/02 01:25:24;;;;;;;5.47;0.95;;;;;;;;;;4961257;28;20058;-61
2023/11/02 01:27:50;;;;;;;4.38;0.80;;;;;;;;;;4990296;28;20202;-62
2023/11/02 01:31:05;;;;;;;2.53;0.90;;;;;;;;;;4979889;28;20093;-62
2023/11/02 01:33:58;;;;;;;2.47;0.80;;;;;;;;;;4928407;28;20150;-62
2023/11/02 01:36:31;;;;;;;4.13;0.98;;;;;;;;;;4977974;28;20158;-61
2023/11/02 01:39:02;;;;;;;5.18;0.80;;;;;;;;;;5001669;28;20108;-62
2023/11/02 01:41:43;;;;;;;0.93;0.50;;;;;;;;;;4996929;28;20059;-62
2023/11/02 01:44:20;;;;;;;1.92;0.60;;;;;;;;;;5001766;28;20061;-61
2023/11/02 01:46:55;;;;;;;7.63;0.70;;;;;;;;;;4998432;28;20045;-62
2023/11/02 01:49:38;;;;;;;4.80;0.90;;;;;;;;;;5014949;28;20069;-62
2023/11/02 01:52:16;;;;;;;3.55;1.00;;;;;;;;;;4990797;28;20139;-63
2023/11/02 01:54:48;;;;;;;5.97;1.00;;;;;;;;;;5005617;28;20080;-64
2023/11/02 01:57:23;;;;;;;6.18;0.70;;;;;;;;;;4984105;28;20133;-63
2023/11/02 01:59:57;;;;;;;2.65;0.90;;;;;;;;;;4989459;28;20055;-62
2023/11/02 02:02:30;;;;;;;3.15;0.65;;;;;;;;;;4990243;28;20133;-63
2023/11/02 02:05:03;;;;;;;5.82;0.70;;;;;;;;;;5028142;28;20136;-62
2023/11/02 02:07:42;;;;;;;1.80;0.70;;;;;;;;;;5021715;28;20278;-62
2023/11/02 02:10:19;;;;;;;3.05;0.70;;;;;;;;;;5025313;28;20874;-62
2023/11/02 02:13:08;;;;;;;1.70;0.60;;;;;;;;;;5038224;28;20081;-63
2023/11/02 02:15:48;;;;;;;2.00;1.05;;;;;;;;;;5046515;28;20131;-64
2023/11/02 02:18:20;;;;;;;1.30;0.52;;;;;;;;;;5011058;28;20061;-63
2023/11/02 02:20:49;;;;;;;2.10;0.80;;;;;;;;;;5016517;28;20103;-63
2023/11/02 02:23:22;;;;;;;6.90;0.90;;;;;;;;;;5006012;28;20136;-63
2023/11/02 02:25:53;;;;;;;5.60;0.70;;;;;;;;;;5019487;28;20077;-63
2023/11/02 02:28:53;;;;;;;2.67;0.55;;;;;;;;;;5018586;28;20145;-63
2023/11/02 02:31:47;;;;;;;1.30;0.52;;;;;;;;;;5013896;28;20069;-63
2023/11/02 02:34:44;;;;;;;2.05;0.75;;;;;;;;;;5028185;28;20041;-61
2023/11/02 02:37:15;;;;;;;2.42;0.70;;;;;;;;;;5014337;28;20068;-61
2023/11/02 02:39:45;;;;;;;2.65;0.80;;;;;;;;;;5019903;28;20045;-62
2023/11/02 02:42:15;;;;;;;2.97;0.70;;;;;;;;;;5037738;28;20057;-62
2023/11/02 02:44:42;;;;;;;5.10;0.63;;;;;;;;;;5003519;28;20057;-62
2023/11/02 02:47:12;;;;;;;1.75;0.60;;;;;;;;;;5015226;28;20057;-62
2023/11/02 02:49:41;;;;;;;1.38;0.65;;;;;;;;;;5024033;28;20135;-62
2023/11/02 02:52:13;;;;;;;0.95;0.47;;;;;;;;;;5031752;28;20045;-63
2023/11/02 02:54:45;;;;;;;1.25;0.45;;;;;;;;;;5023405;28;20045;-63
2023/11/02 02:57:13;;;;;;;2.40;0.63;;;;;;;;;;5026088;28;20135;-62
2023/11/02 02:59:42;;;;;;;3.08;0.80;;;;;;;;;;5012779;28;20050;-63
2023/11/02 03:02:13;;;;;;;3.70;0.65;;;;;;;;;;5021336;28;20090;-63
2023/11/02 03:04:42;;;;;;;12.43;0.98;;;;;;;;;;5040732;28;20085;-62
2023/11/02 03:07:09;;;;;;;1.20;0.38;;;;;;;;;;5016773;28;20148;-62
2023/11/02 03:09:39;;;;;;;1.83;0.68;;;;;;;;;;5056810;28;20169;-63
2023/11/02 03:12:11;;;;;;;3.17;0.57;;;;;;;;;;5039227;28;20139;-63
2023/11/02 03:14:40;;;;;;;1.35;0.60;;;;;;;;;;5041445;28;20126;-62
2023/11/02 03:17:13;;;;;;;3.83;0.60;;;;;;;;;;5026223;28;20045;-62
2023/11/02 03:19:45;;;;;;;2.20;0.63;;;;;;;;;;5040064;28;20053;-63
2023/11/02 03:22:15;;;;;;;5.88;0.80;;;;;;;;;;5029150;28;20136;-63
2023/11/02 03:24:50;;;;;;;3.72;0.60;;;;;;;;;;5046555;28;20045;-62
2023/11/02 03:27:26;;;;;;;1.10;0.50;;;;;;;;;;5014105;28;20057;-63
2023/11/02 03:30:03;;;;;;;4.28;0.60;;;;;;;;;;5039165;28;20071;-62
2023/11/02 03:32:37;;;;;;;3.35;0.70;;;;;;;;;;5036498;28;20236;-62
2023/11/02 03:35:11;;;;;;;3.20;0.57;;;;;;;;;;5040131;28;20077;-62
2023/11/02 03:37:45;;;;;;;1.52;0.52;;;;;;;;;;5017438;28;20091;-64
2023/11/02 03:40:23;;;;;;;2.83;0.68;;;;;;;;;;5034289;28;20053;-64
2023/11/02 03:42:58;;;;;;;4.35;0.73;;;;;;;;;;5040232;28;20085;-63
2023/11/02 03:45:38;;;;;;;5.07;0.80;;;;;;;;;;5041308;28;20064;-63
2023/11/02 03:48:13;;;;;;;3.92;0.70;;;;;;;;;;5034970;28;20053;-63
2023/11/02 03:50:52;;;;;;;5.40;0.65;;;;;;;;;;5045263;28;20064;-63
2023/11/02 03:53:22;;;;;;;;;;;;;;;;;;5045774;28;20132;-63
2023/11/02 03:56:02;;;;;;;6.05;0.70;;;;;;;;;;5042825;28;19929;-62
2023/11/02 03:58:40;;;;;;;3.55;1.05;;;;;;;;;;5049377;28;20049;-62
2023/11/02 04:01:16;;;;;;;5.73;0.60;;;;;;;;;;5045343;28;20143;-62
2023/11/02 04:03:49;;;;;;;2.85;0.80;;;;;;;;;;5042441;28;20060;-62
2023/11/02 04:06:21;;;;;;;4.78;0.65;;;;;;;;;;5037488;28;20139;-63
2023/11/02 04:08:50;;;;;;;4.10;0.63;;;;;;;;;;5042308;28;20130;-62
2023/11/02 04:11:23;;;;;;;;;;;;;;;;;;5045055;28;20056;-61
2023/11/02 04:14:12;;;;;;;11.63;0.82;;;;;;;;;;5043581;28;19924;-62
2023/11/02 04:16:39;;;;;;;3.65;0.80;;;;;;;;;;5020310;28;20061;-62
2023/11/02 04:19:05;;;;;;;6.22;0.93;;;;;;;;;;5025057;28;20084;-62
2023/11/02 04:21:32;;;;;;;2.28;0.70;;;;;;;;;;5024226;28;20061;-63
2023/11/02 04:23:59;;;;;;;4.53;0.88;;;;;;;;;;5035134;28;20350;-62
2023/11/02 04:26:27;;;;;;;3.17;0.50;;;;;;;;;;5031231;28;20045;-62
2023/11/02 04:28:58;;;;;;;7.43;0.77;;;;;;;;;;5044032;28;20057;-63
2023/11/02 04:31:24;;;;;;;2.13;1.00;;;;;;;;;;5042591;28;20056;-62
2023/11/02 04:33:51;;;;;;;9.70;0.85;;;;;;;;;;5025225;28;20144;-62
2023/11/02 04:36:18;;;;;;;2.42;0.52;;;;;;;;;;5021576;28;20057;-63
2023/11/02 04:38:49;;;;;;;3.17;0.63;;;;;;;;;;5010109;28;20092;-62
2023/11/02 04:41:15;;;;;;;2.20;0.70;;;;;;;;;;5022214;28;20046;-62
2023/11/02 04:43:42;;;;;;;0.63;0.35;;;;;;;;;;5028095;28;20053;-62
2023/11/02 04:46:11;;;;;;;4.05;0.98;;;;;;;;;;5017334;28;20061;-63
2023/11/02 04:48:37;;;;;;;4.07;0.52;;;;;;;;;;5021726;28;20061;-62
2023/11/02 04:51:04;;;;;;;2.42;0.43;;;;;;;;;;5025366;28;20061;-62
2023/11/02 04:53:31;;;;;;;2.58;0.80;;;;;;;;;;5021996;28;20045;-63
2023/11/02 04:56:01;;;;;;;4.00;0.57;;;;;;;;;;5023833;28;20061;-61
2023/11/02 04:58:30;;;;;;;3.55;0.90;;;;;;;;;;5011462;28;20049;-64
2023/11/02 05:00:57;;;;;;;1.58;0.60;;;;;;;;;;5023912;28;20140;-63
2023/11/02 05:03:27;;;;;;;2.70;0.65;;;;;;;;;;5021797;28;20203;-63
2023/11/02 05:05:56;;;;;;;2.72;0.30;;;;;;;;;;5021462;28;20057;-64
2023/11/02 05:08:23;;;;;;;3.28;0.50;;;;;;;;;;5011142;28;20121;-63
2023/11/02 05:10:50;;;;;;;1.58;0.70;;;;;;;;;;5031475;28;20048;-63
2023/11/02 05:13:16;;;;;;;2.38;0.68;;;;;;;;;;5030481;28;20049;-64
2023/11/02 05:15:43;;;;;;;6.32;1.00;;;;;;;;;;5036254;28;20041;-64
2023/11/02 05:18:10;;;;;;;2.30;0.70;;;;;;;;;;5033757;28;20078;-64
2023/11/02 05:20:38;;;;;;;3.42;0.70;;;;;;;;;;5042431;28;20061;-64
2023/11/02 05:23:07;;;;;;;2.00;0.50;;;;;;;;;;5053544;28;20037;-64
2023/11/02 05:25:34;;;;;;;5.72;0.80;;;;;;;;;;5044818;28;20048;-63
2023/11/02 05:28:01;;;;;;;0.65;0.43;;;;;;;;;;5030626;28;20060;-63
2023/11/02 05:30:27;;;;;;;2.67;0.60;;;;;;;;;;5039444;28;20136;-63
2023/11/02 05:32:54;;;;;;;3.30;0.70;;;;;;;;;;5034503;28;20095;-63
2023/11/02 05:35:21;;;;;;;2.35;0.65;;;;;;;;;;5053067;28;20060;-63
2023/11/02 05:37:49;;;;;;;3.42;0.52;;;;;;;;;;5037867;28;20053;-63
2023/11/02 05:40:16;;;;;;;1.20;0.70;;;;;;;;;;5032580;28;20136;-63
2023/11/02 05:42:42;;;;;;;1.55;0.60;;;;;;;;;;5039927;28;20118;-63
2023/11/02 05:45:10;;;;;;;4.35;0.90;;;;;;;;;;5044269;28;20087;-63
2023/11/02 05:47:36;;;;;;;3.42;0.80;;;;;;;;;;5036943;28;20107;-64
2023/11/02 05:50:05;;;;;;;2.75;0.70;;;;;;;;;;5047894;28;20084;-64
2023/11/02 05:52:31;;;;;;;5.10;0.90;;;;;;;;;;5033485;28;21844;-63
2023/11/02 05:55:00;;;;;;;3.08;0.70;;;;;;;;;;5021799;28;20073;-64
2023/11/02 05:57:26;;;;;;;1.15;0.65;;;;;;;;;;5009432;28;20126;-64
2023/11/02 05:59:53;;;;;;;1.77;0.82;;;;;;;;;;5022233;28;20049;-64
2023/11/02 06:02:19;;;;;;;0.88;0.43;;;;;;;;;;5013378;28;20053;-65
2023/11/02 06:04:46;;;;;;;2.40;0.70;;;;;;;;;;5021505;28;20049;-64
2023/11/02 06:07:12;;;;;;;1.98;0.55;;;;;;;;;;5003103;28;20048;-64
2023/11/02 06:09:43;;;;;;;5.25;0.70;;;;;;;;;;5041014;28;20048;-65
2023/11/02 06:12:12;;;;;;;5.70;0.70;;;;;;;;;;5054746;28;20106;-64
2023/11/02 06:14:38;;;;;;;3.95;0.90;;;;;;;;;;5037860;28;20124;-64
2023/11/02 06:17:05;;;;;;;2.92;0.60;;;;;;;;;;5034943;28;20111;-64
2023/11/02 06:19:32;;;;;;;3.13;0.47;;;;;;;;;;5058042;28;20076;-63
2023/11/02 06:21:58;;;;;;;1.05;0.52;;;;;;;;;;5037639;28;20046;-63
2023/11/02 06:24:25;;;;;;;3.03;0.80;;;;;;;;;;5032707;28;20049;-63
2023/11/02 06:26:52;;;;;;;1.13;0.65;;;;;;;;;;5026829;28;20119;-62
2023/11/02 06:29:20;;;;;;;0.98;0.32;;;;;;;;;;5038724;28;20045;-63
2023/11/02 06:31:47;;;;;;;1.85;0.63;;;;;;;;;;5038672;28;20076;-63
2023/11/02 06:34:16;;;;;;;1.13;0.73;;;;;;;;;;5022073;28;20084;-64
2023/11/02 06:36:43;;;;;;;1.10;0.50;;;;;;;;;;5009116;28;20149;-65
2023/11/02 06:39:10;;;;;;;2.67;0.50;;;;;;;;;;5036475;28;20139;-64
2023/11/02 06:41:37;;;;;;;1.45;0.57;;;;;;;;;;5019928;28;20099;-63
2023/11/02 06:44:04;;;;;;;1.33;0.52;;;;;;;;;;5020644;28;20271;-63
2023/11/02 06:46:32;;;;;;;3.33;0.82;;;;;;;;;;5016139;28;20070;-64
2023/11/02 06:48:59;;;;;;;0.70;0.47;;;;;;;;;;4997129;28;20115;-64
2023/11/02 06:51:26;;;;;;;1.33;0.50;;;;;;;;;;5000657;28;20157;-63
2023/11/02 06:53:53;;;;;;;1.75;1.02;;;;;;;;;;5019397;28;20049;-62
2023/11/02 06:56:21;;;;;;;0.75;0.60;;;;;;;;;;5000664;28;20643;-63
2023/11/02 06:58:47;;;;;;;0.60;0.40;;;;;;;;;;5025599;28;20057;-63
2023/11/02 07:01:14;;;;;;;1.48;0.60;;;;;;;;;;5021308;28;20362;-63
2023/11/02 07:03:42;;;;;;;1.90;0.60;;;;;;;;;;5031600;28;20139;-63
2023/11/02 07:06:11;;;;;;;0.73;0.55;;;;;;;;;;5037478;28;20052;-63
2023/11/02 07:08:38;;;;;;;1.85;0.50;;;;;;;;;;5033318;28;20073;-64
2023/11/02 07:11:06;;;;;;;4.70;0.60;;;;;;;;;;5021947;28;20153;-63
2023/11/02 07:13:35;;;;;;;3.70;0.60;;;;;;;;;;5027151;28;20087;-62
2023/11/02 07:16:02;;;;;;;3.67;0.68;;;;;;;;;;5042799;28;20061;-63
2023/11/02 07:18:29;;;;;;;1.42;0.45;;;;;;;;;;5013394;28;20056;-63
2023/11/02 07:20:57;;;;;;;2.20;0.60;;;;;;;;;;5041417;28;20128;-64
2023/11/02 07:23:24;;;;;;;1.95;0.68;;;;;;;;;;5028377;28;20041;-64
2023/11/02 07:25:51;;;;;;;1.67;0.50;;;;;;;;;;5024483;28;20037;-64
2023/11/02 07:28:18;;;;;;;0.98;0.55;;;;;;;;;;4970145;28;20045;-64
2023/11/02 07:30:45;;;;;;;0.52;0.50;;;;;;;;;;5022461;28;20137;-65
2023/11/02 07:33:13;;;;;;;1.10;0.45;;;;;;;;;;5028686;28;20063;-64
2023/11/02 07:35:42;;;;;;;2.58;0.50;;;;;;;;;;5030983;28;20107;-63
2023/11/02 07:38:10;;;;;;;3.80;0.60;;;;;;;;;;4961382;28;20192;-64
2023/11/02 07:40:37;;;;;;;1.15;0.50;;;;;;;;;;5033740;28;20052;-63
2023/11/02 07:43:05;;;;;;;0.98;0.50;;;;;;;;;;5044405;28;20057;-64
2023/11/02 07:45:32;;;;;;;1.17;0.50;;;;;;;;;;5044822;28;20079;-64
2023/11/02 07:48:00;;;;;;;6.38;0.50;;;;;;;;;;5021969;28;20048;-62
2023/11/02 07:50:27;;;;;;;;;;;;;;;;;;5039568;28;20149;-63
2023/11/02 07:52:56;;;;;;;1.08;0.70;;;;;;;;;;5042585;28;19962;-64
2023/11/02 07:55:25;;;;;;;;;;;;;;;;;;5044484;28;20060;-65
2023/11/02 07:57:53;;;;;;;3.20;0.50;;;;;;;;;;5002634;28;20060;-63
2023/11/02 08:00:21;;;;;;;2.70;0.75;;;;;;;;;;5038792;28;20049;-63
2023/11/02 08:02:49;;;;;;;0.40;0.35;;;;;;;;;;5045337;28;20075;-64
2023/11/02 08:05:16;;;;;;;2.00;0.50;;;;;;;;;;5041571;28;20232;-63
2023/11/02 08:07:45;;;;;;;1.00;0.50;;;;;;;;;;5027861;28;20088;-64
2023/11/02 08:10:14;;;;;;;1.63;1.05;;;;;;;;;;5036123;28;20211;-64
2023/11/02 08:12:42;;;;;;;2.70;0.95;;;;;;;;;;5057714;28;20049;-62
2023/11/02 08:15:10;;;;;;;0.47;0.32;;;;;;;;;;5044021;28;20057;-63
2023/11/02 08:17:36;;;;;;;1.13;0.40;;;;;;;;;;5020717;28;20041;-63
2023/11/02 08:20:14;;;;;;;0.57;0.45;;;;;;;;;;5039363;28;20065;-65
2023/11/02 08:22:43;;;;;;;2.10;0.60;;;;;;;;;;5040849;28;20060;-63
2023/11/02 08:25:11;;;;;;;0.98;0.45;;;;;;;;;;5039711;28;20068;-64
2023/11/02 08:27:38;;;;;;;2.58;0.63;;;;;;;;;;4994918;28;20073;-64
2023/11/02 08:30:13;;;;;;;0.65;0.35;;;;;;;;;;5038050;28;20052;-64
2023/11/02 08:32:40;;;;;;;1.38;0.63;;;;;;;;;;5044878;28;20063;-64
2023/11/02 08:35:09;;;;;;;3.63;0.68;;;;;;;;;;5039310;28;20106;-64
2023/11/02 08:37:38;;;;;;;3.35;0.77;;;;;;;;;;5022956;28;20044;-63
2023/11/02 08:40:06;;;;;;;6.60;1.65;;;;;;;;;;5052583;28;20061;-64
2023/11/02 08:42:33;;;;;;;2.13;0.93;;;;;;;;;;5034802;28;20188;-64
2023/11/02 08:44:59;;;;;;;3.28;0.82;;;;;;;;;;5042957;28;20045;-64
2023/11/02 08:47:27;;;;;;;1.92;0.60;;;;;;;;;;4988219;28;20159;-64
2023/11/02 08:49:56;;;;;;;3.25;1.08;;;;;;;;;;5037798;28;20120;-63
2023/11/02 08:52:24;;;;;;;;;;;;;;;;;;5036427;28;20181;-64
2023/11/02 08:54:51;;;;;;;1.20;0.60;;;;;;;;;;5041058;28;19990;-64
2023/11/02 08:57:22;;;;;;;2.65;1.13;;;;;;;;;;5019331;28;20054;-63
2023/11/02 08:59:49;;;;;;;3.72;0.75;;;;;;;;;;5029933;28;20952;-63
2023/11/02 09:02:16;;;;;;;5.57;0.90;;;;;;;;;;5039810;28;20044;-64
2023/11/02 09:04:47;;;;;;;3.65;1.13;;;;;;;;;;5041775;28;20139;-64
2023/11/02 09:07:15;;;;;;;3.65;0.77;;;;;;;;;;4971305;28;22119;-63
2023/11/02 09:09:44;;;;;;;3.95;0.90;;;;;;;;;;5021161;28;20061;-63
2023/11/02 09:12:11;;;;;;;3.55;0.70;;;;;;;;;;5037998;28;20041;-66
2023/11/02 09:14:42;;;;;;;5.85;0.90;;;;;;;;;;5034156;28;20157;-63
2023/11/02 09:17:08;;;;;;;2.92;0.65;;;;;;;;;;5022408;28;20055;-63
2023/11/02 09:19:35;;;;;;;9.25;0.93;;;;;;;;;;5033707;28;20037;-63
2023/11/02 09:22:19;;;;;;;1.70;0.50;;;;;;;;;;5038282;28;20041;-63
2023/11/02 09:24:45;;;;;;;3.70;0.80;;;;;;;;;;5039579;28;20059;-62
2023/11/02 09:27:13;;;;;;;6.00;0.60;;;;;;;;;;5027074;28;20655;-62
2023/11/02 09:29:40;;;;;;;3.40;0.85;;;;;;;;;;5037265;28;20049;-63
2023/11/02 09:32:07;;;;;;;6.38;1.13;;;;;;;;;;5040672;28;20049;-62
2023/11/02 09:34:38;;;;;;;6.47;1.25;;;;;;;;;;5032135;28;20131;-63
2023/11/02 09:37:06;;;;;;;2.80;0.82;;;;;;;;;;5024922;28;20128;-63
2023/11/02 09:39:36;;;;;;;3.58;0.80;;;;;;;;;;5003439;28;20235;-63
2023/11/02 09:42:04;;;;;;;2.65;0.80;;;;;;;;;;5003904;28;20053;-63
2023/11/02 09:44:31;;;;;;;4.70;0.80;;;;;;;;;;5011152;28;20448;-63
2023/11/02 09:46:59;;;;;;;1.63;0.57;;;;;;;;;;4999375;28;20064;-63
2023/11/02 09:49:26;;;;;;;1.98;0.40;;;;;;;;;;5021928;28;20050;-63
2023/11/02 09:51:55;;;;;;;4.93;1.27;;;;;;;;;;5022604;28;20056;-63
2023/11/02 09:54:22;;;;;;;2.72;0.50;;;;;;;;;;5029518;28;20446;-63
2023/11/02 09:56:51;;;;;;;5.72;0.55;;;;;;;;;;5021072;28;20083;-63
2023/11/02 09:59:18;;;;;;;2.35;0.73;;;;;;;;;;5021322;28;20055;-63
2023/11/02 10:01:46;;;;;;;4.35;0.50;;;;;;;;;;5043441;28;20137;-63
2023/11/02 10:04:12;;;;;;;5.23;0.70;;;;;;;;;;5034495;28;20053;-64
2023/11/02 10:06:39;;;;;;;7.00;0.80;;;;;;;;;;5019480;28;20315;-63
2023/11/02 10:09:06;;;;;;;4.10;0.75;;;;;;;;;;4994319;28;20152;-62
2023/11/02 10:11:32;;;;;;;5.47;0.85;;;;;;;;;;5022216;28;20073;-63
2023/11/02 10:14:06;;;;;;;1.92;0.52;;;;;;;;;;5021294;28;20111;-63
2023/11/02 10:16:33;;;;;;;4.25;0.88;;;;;;;;;;5032315;28;20148;-63
2023/11/02 10:18:59;;;;;;;3.90;0.65;;;;;;;;;;5035550;28;20099;-63
2023/11/02 10:21:26;;;;;;;1.02;0.40;;;;;;;;;;5039477;28;20064;-63
2023/11/02 10:23:55;;;;;;;2.63;0.55;;;;;;;;;;5031940;28;20064;-65
2023/11/02 10:26:21;;;;;;;;;;;;;;;;;;5014134;28;20061;-63
2023/11/02 10:28:50;;;;;;;4.53;0.90;;;;;;;;;;5009019;28;20026;-62
2023/11/02 10:31:23;;;;;;;;;;;;;;;;;;5022191;28;20060;-63
2023/11/02 10:33:50;;;;;;;1.20;0.52;;;;;;;;;;5022595;28;20128;-63
2023/11/02 10:36:17;;;;;;;3.33;1.30;;;;;;;;;;5013131;28;20117;-63
2023/11/02 10:38:44;;;;;;;3.85;0.90;;;;;;;;;;5021791;28;20077;-63
2023/11/02 10:41:14;;;;;;;0.95;0.50;;;;;;;;;;5021599;28;20076;-64
2023/11/02 10:43:43;;;;;;;2.50;0.70;;;;;;;;;;5020651;28;20081;-63
2023/11/02 10:46:12;;;;;;;2.78;0.50;;;;;;;;;;5046277;28;20072;-63
2023/11/02 10:48:41;;;;;;;5.10;0.68;;;;;;;;;;5039370;28;20052;-64
2023/11/02 10:51:11;;;;;;;13.90;1.27;;;;;;;;;;5030890;28;20052;-64
2023/11/02 10:53:46;;;;;;;6.47;1.10;;;;;;;;;;5031059;28;20073;-63
2023/11/02 10:56:19;;;;;;;6.45;0.80;;;;;;;;;;5021795;28;20052;-63
2023/11/02 10:58:47;;;;;;;4.18;0.98;;;;;;;;;;5024173;28;20049;-63
2023/11/02 11:01:14;;;;;;;4.50;0.65;;;;;;;;;;5026205;28;20088;-63
2023/11/02 11:03:43;;;;;;;5.55;0.63;;;;;;;;;;5049014;28;20092;-63
2023/11/02 11:06:13;;;;;;;;;;;;;;;;;;5031408;28;20053;-63
2023/11/02 11:08:40;;;;;;;7.28;1.83;;;;;;;;;;5026116;28;20381;-63
2023/11/02 11:11:10;;;;;;;5.97;1.60;;;;;;;;;;5032230;28;20084;-63
2023/11/02 11:13:37;;;;;;;7.10;0.90;;;;;;;;;;5048316;28;20488;-62
2023/11/02 11:16:07;;;;;;;6.20;0.73;;;;;;;;;;5034107;28;20046;-61
2023/11/02 11:18:36;;;;;;;8.98;1.25;;;;;;;;;;5004332;28;20175;-61
2023/11/02 11:21:05;;;;;;;3.30;0.65;;;;;;;;;;5045602;28;20063;-61
2023/11/02 11:23:36;;;;;;;11.00;1.17;;;;;;;;;;5031295;28;20119;-62
2023/11/02 11:26:03;;;;;;;2.30;0.57;;;;;;;;;;5026563;28;20076;-63
2023/11/02 11:28:32;;;;;;;9.10;1.48;;;;;;;;;;5028030;28;20118;-62
2023/11/02 11:30:59;;;;;;;5.57;1.00;;;;;;;;;;5033439;28;20130;-65
2023/11/02 11:33:49;;;;;;;3.17;0.57;;;;;;;;;;5022125;28;20127;-62
2023/11/02 11:36:23;;;;;;;13.60;0.80;;;;;;;;;;5016113;28;20073;-63
2023/11/02 11:38:50;;;;;;;5.82;1.23;;;;;;;;;;5020630;28;20049;-62
2023/11/02 11:41:42;;;;;;;2.78;0.77;;;;;;;;;;5024594;28;20053;-63
2023/11/02 11:44:22;;;;;;;7.95;0.75;;;;;;;;;;5005446;28;20408;-62
2023/11/02 11:46:52;;;;;;;3.03;0.70;;;;;;;;;;5006274;28;20140;-61
2023/11/02 11:49:46;;;;;;;9.30;1.27;;;;;;;;;;5038622;28;20050;-62
2023/11/02 11:52:28;;;;;;;1.58;0.60;;;;;;;;;;5019893;28;20041;-64
2023/11/02 11:54:55;;;;;;;4.70;0.47;;;;;;;;;;5029576;28;20058;-64
2023/11/02 11:57:57;;;;;;;7.47;0.80;;;;;;;;;;5017358;28;20122;-62
2023/11/02 12:00:27;;;;;;;1.25;0.40;;;;;;;;;;5027867;28;20076;-62
2023/11/02 12:03:03;;;;;;;3.00;0.63;;;;;;;;;;5018046;28;20057;-63
2023/11/02 12:05:53;;;;;;;2.33;0.70;;;;;;;;;;5024703;28;20038;-63
2023/11/02 12:08:22;;;;;;;6.53;1.27;;;;;;;;;;5010534;28;20057;-62
2023/11/02 12:10:51;;;;;;;0.88;0.68;;;;;;;;;;5026702;28;20079;-63
2023/11/02 12:13:19;;;;;;;4.90;0.93;;;;;;;;;;5022409;28;20188;-63
2023/11/02 12:15:57;;;;;;;7.93;2.13;;;;;;;;;;5035641;28;20057;-63
2023/11/02 12:18:25;;;;;;;6.40;1.67;;;;;;;;;;5034723;28;20048;-62
2023/11/02 12:20:52;;;;;;;3.90;0.65;;;;;;;;;;5044445;28;20132;-61
2023/11/02 12:23:20;;;;;;;4.57;0.75;;;;;;;;;;5049415;28;20049;-60
2023/11/02 12:25:52;;;;;;;5.75;0.88;;;;;;;;;;5041522;28;20056;-62
2023/11/02 12:28:19;;;;;;;6.72;0.75;;;;;;;;;;4998254;28;20507;-61
2023/11/02 12:30:46;;;;;;;6.18;0.93;;;;;;;;;;5035799;28;20055;-64
2023/11/02 12:33:27;;;;;;;4.30;0.60;;;;;;;;;;5024219;28;20049;-61
2023/11/02 12:35:54;;;;;;;4.10;1.00;;;;;;;;;;5041011;28;20048;-62
2023/11/02 12:38:49;;;;;;;4.60;0.70;;;;;;;;;;5041130;28;20049;-60
2023/11/02 12:41:28;;;;;;;7.97;0.98;;;;;;;;;;4994978;28;20057;-62
2023/11/02 12:44:04;;;;;;;5.40;1.17;;;;;;;;;;5029213;28;20060;-63
2023/11/02 12:46:32;;;;;;;4.63;0.70;;;;;;;;;;5052086;28;20118;-61
2023/11/02 12:49:11;;;;;;;6.80;0.80;;;;;;;;;;5030797;28;20061;-61
2023/11/02 12:51:38;;;;;;;3.20;0.55;;;;;;;;;;5021903;28;20055;-63
2023/11/02 12:54:12;;;;;;;6.90;0.73;;;;;;;;;;5014110;28;20147;-62
2023/11/02 12:56:41;;;;;;;4.68;1.10;;;;;;;;;;5030339;28;20148;-62
2023/11/02 12:59:10;;;;;;;3.30;0.70;;;;;;;;;;5028461;28;20083;-62
2023/11/02 13:01:45;;;;;;;2.05;0.52;;;;;;;;;;5037525;28;20049;-62
2023/11/02 13:04:15;;;;;;;6.03;0.68;;;;;;;;;;5030721;28;20053;-63
2023/11/02 13:06:42;;;;;;;3.63;0.80;;;;;;;;;;5034963;28;20095;-61
2023/11/02 13:09:13;;;;;;;1.77;0.60;;;;;;;;;;5043795;28;20063;-61
2023/11/02 13:11:44;;;;;;;6.72;0.90;;;;;;;;;;5035022;28;20068;-62
2023/11/02 13:14:13;;;;;;;6.43;0.95;;;;;;;;;;5031795;28;20060;-62
2023/11/02 13:16:39;;;;;;;3.05;0.80;;;;;;;;;;5034526;28;20064;-63
2023/11/02 13:19:07;;;;;;;5.35;0.85;;;;;;;;;;5020968;28;20057;-62
2023/11/02 13:21:34;;;;;;;4.97;0.52;;;;;;;;;;5031853;28;20076;-63
2023/11/02 13:24:00;;;;;;;6.50;0.90;;;;;;;;;;5036626;28;20063;-63
2023/11/02 13:26:27;;;;;;;3.90;0.60;;;;;;;;;;5041491;28;20059;-63
2023/11/02 13:28:56;;;;;;;2.55;0.70;;;;;;;;;;5040297;28;20059;-63
2023/11/02 13:31:31;;;;;;;4.15;0.75;;;;;;;;;;5043019;28;20110;-64
2023/11/02 13:33:58;;;;;;;6.07;1.17;;;;;;;;;;5017744;28;20064;-63
2023/11/02 13:36:25;;;;;;;3.13;0.80;;;;;;;;;;5035073;28;20053;-62
2023/11/02 13:38:52;;;;;;;4.10;0.85;;;;;;;;;;5044279;28;20052;-62
2023/11/02 13:41:21;;;;;;;4.68;0.60;;;;;;;;;;5037011;28;20120;-63
2023/11/02 13:43:50;;;;;;;4.57;0.57;;;;;;;;;;4976902;28;20061;-63
2023/11/02 13:46:18;;;;;;;1.80;0.45;;;;;;;;;;5003218;28;20089;-63
2023/11/02 13:48:48;;;;;;;7.68;0.73;;;;;;;;;;5017213;28;20057;-63
2023/11/02 13:51:20;;;;;;;1.88;0.45;;;;;;;;;;5021813;28;20119;-63
2023/11/02 13:53:49;;;;;;;8.48;0.80;;;;;;;;;;4981176;28;20099;-64
2023/11/02 13:56:16;;;;;;;;;;;;;;;;;;5015129;28;20046;-64
2023/11/02 13:58:43;;;;;;;7.57;0.80;;;;;;;;;;5020859;28;19960;-62
2023/11/02 14:01:10;;;;;;;3.38;0.77;;;;;;;;;;5022536;28;20066;-62
2023/11/02 14:03:38;;;;;;;5.72;1.13;;;;;;;;;;5001117;28;20519;-61
2023/11/02 14:06:06;;;;;;;5.00;0.70;;;;;;;;;;5027084;28;20121;-62
2023/11/02 14:08:33;;;;;;;2.95;0.35;;;;;;;;;;5041147;28;20045;-63
2023/11/02 14:11:05;;;;;;;7.85;0.90;;;;;;;;;;5041975;28;20143;-64
2023/11/02 14:13:32;;;;;;;5.18;0.60;;;;;;;;;;5013187;28;20202;-63
2023/11/02 14:15:59;;;;;;;4.97;0.63;;;;;;;;;;5054878;28;20060;-63
2023/11/02 14:18:26;;;;;;;2.83;0.50;;;;;;;;;;5041430;28;20041;-63
2023/11/02 14:20:55;;;;;;;5.40;0.63;;;;;;;;;;5043159;28;20059;-64
2023/11/02 14:23:22;;;;;;;1.98;0.50;;;;;;;;;;5021022;28;20045;-63
2023/11/02 14:25:50;;;;;;;7.65;1.13;;;;;;;;;;5043289;28;20053;-63
2023/11/02 14:28:19;;;;;;;7.38;1.25;;;;;;;;;;5024376;28;20065;-63
2023/11/02 14:30:49;;;;;;;1.55;0.57;;;;;;;;;;5047265;28;20045;-63
2023/11/02 14:33:16;;;;;;;10.37;1.30;;;;;;;;;;5009557;28;20119;-64
2023/11/02 14:35:43;;;;;;;3.85;0.80;;;;;;;;;;5035762;28;20323;-62
2023/11/02 14:38:11;;;;;;;6.13;0.82;;;;;;;;;;5027899;28;20057;-63
2023/11/02 14:40:38;;;;;;;4.72;1.00;;;;;;;;;;5035179;28;20060;-63
2023/11/02 14:43:05;;;;;;;3.00;0.80;;;;;;;;;;5031791;28;20048;-63
2023/11/02 14:45:32;;;;;;;5.22;1.00;;;;;;;;;;5016140;28;20060;-63
2023/11/02 14:47:59;;;;;;;5.30;0.95;;;;;;;;;;5023815;28;20061;-65
2023/11/02 14:50:26;;;;;;;8.55;0.98;;;;;;;;;;5040080;28;20387;-64
2023/11/02 14:52:53;;;;;;;6.63;0.93;;;;;;;;;;5017995;28;21095;-64
2023/11/02 14:55:23;;;;;;;3.83;0.70;;;;;;;;;;5032658;28;20057;-64
2023/11/02 14:57:51;;;;;;;3.83;0.85;;;;;;;;;;5038372;28;20162;-63
2023/11/02 15:00:19;;;;;;;4.05;0.88;;;;;;;;;;5041475;28;20060;-63
2023/11/02 15:02:46;;;;;;;4.90;0.80;;;;;;;;;;5027482;28;20052;-62
2023/11/02 15:05:13;;;;;;;4.78;0.93;;;;;;;;;;5043092;28;20160;-62